createdAt,value
2017-12-29T00:01:15.342Z,69.50
2017-12-29T00:03:49.906Z,70.00
2017-12-29T00:06:23.882Z,69.50
2017-12-29T00:08:57.644Z,69.50
2017-12-29T00:11:31.313Z,69.60
2017-12-29T00:14:05.004Z,69.50
2017-12-29T00:16:39.144Z,69.50
2017-12-29T00:19:13.659Z,69.80
2017-12-29T00:21:48.343Z,70.70
2017-12-29T00:24:22.129Z,70.50
2017-12-29T00:26:55.790Z,70.60
2017-12-29T00:29:29.631Z,70.60
2017-12-29T00:32:03.425Z,70.60
2017-12-29T00:34:39.160Z,70.30
2017-12-29T00:37:14.850Z,70.00
2017-12-29T00:39:49.434Z,70.20
2017-12-29T00:42:23.987Z,70.30
2017-12-29T00:44:58.894Z,70.80
2017-12-29T00:47:32.978Z,70.30
2017-12-29T00:50:06.627Z,70.30
2017-12-29T00:52:41.326Z,70.80
2017-12-29T00:55:15.545Z,70.00
2017-12-29T00:57:49.213Z,69.80
2017-12-29T01:00:24.112Z,69.70
2017-12-29T01:02:58.087Z,69.50
2017-12-29T01:05:32.655Z,69.90
2017-12-29T01:08:07.349Z,70.60
2017-12-29T01:10:42.117Z,70.50
2017-12-29T01:13:17.012Z,70.70
2017-12-29T01:15:51.214Z,70.00
2017-12-29T01:18:25.868Z,70.90
2017-12-29T01:20:59.785Z,69.90
2017-12-29T01:23:33.536Z,69.90
2017-12-29T01:26:07.710Z,70.10
2017-12-29T01:28:42.912Z,70.90
2017-12-29T01:31:16.857Z,70.50
2017-12-29T01:33:51.234Z,70.50
2017-12-29T01:36:25.876Z,70.70
2017-12-29T01:39:00.366Z,71.00
2017-12-29T01:41:34.791Z,71.50
2017-12-29T01:44:09.803Z,71.70
2017-12-29T01:46:44.453Z,72.60
2017-12-29T01:49:19.126Z,73.00
2017-12-29T01:51:53.121Z,71.60
2017-12-29T01:54:26.885Z,71.80
2017-12-29T01:57:00.548Z,72.30
2017-12-29T01:59:34.261Z,72.20
2017-12-29T02:02:08.444Z,71.70
2017-12-29T02:04:43.096Z,72.40
2017-12-29T02:07:17.853Z,73.20
2017-12-29T02:09:51.701Z,72.70
2017-12-29T02:12:26.491Z,72.80
2017-12-29T02:15:01.217Z,72.90
2017-12-29T02:17:36.046Z,73.20
2017-12-29T02:20:10.673Z,73.30
2017-12-29T02:22:45.501Z,72.80
2017-12-29T02:25:19.390Z,73.40
2017-12-29T02:27:53.900Z,73.40
2017-12-29T02:30:27.926Z,72.90
2017-12-29T02:33:01.546Z,73.00
2017-12-29T02:35:36.267Z,73.70
2017-12-29T02:38:10.971Z,73.80
2017-12-29T02:40:45.256Z,73.30
2017-12-29T02:43:18.887Z,73.40
2017-12-29T02:45:54.350Z,73.50
2017-12-29T02:48:28.162Z,73.50
2017-12-29T02:51:02.024Z,74.00
2017-12-29T02:53:35.720Z,74.00
2017-12-29T02:56:10.251Z,74.00
2017-12-29T02:58:45.113Z,74.00
2017-12-29T03:01:19.076Z,73.40
2017-12-29T03:03:53.654Z,74.00
2017-12-29T03:06:28.365Z,74.10
2017-12-29T03:09:03.113Z,74.00
2017-12-29T03:11:37.725Z,74.00
2017-12-29T03:14:12.561Z,73.80
2017-12-29T03:16:46.441Z,73.80
2017-12-29T03:19:20.163Z,73.00
2017-12-29T03:21:54.598Z,73.50
2017-12-29T03:24:29.390Z,73.50
2017-12-29T03:27:04.263Z,73.50
2017-12-29T03:29:38.161Z,72.70
2017-12-29T03:32:13.388Z,72.90
2017-12-29T03:34:48.038Z,72.00
2017-12-29T03:37:22.616Z,71.70
2017-12-29T03:39:56.967Z,71.50
2017-12-29T03:42:31.908Z,71.30
2017-12-29T03:45:06.322Z,71.30
2017-12-29T03:47:41.970Z,71.30
2017-12-29T03:50:17.849Z,71.30
2017-12-29T03:52:52.926Z,71.70
2017-12-29T03:55:26.977Z,71.20
2017-12-29T03:58:01.591Z,71.40
2017-12-29T04:00:35.208Z,71.20
2017-12-29T04:03:09.824Z,71.90
2017-12-29T04:05:44.734Z,71.50
2017-12-29T04:08:19.589Z,71.40
2017-12-29T04:10:53.615Z,70.70
2017-12-29T04:13:28.306Z,71.30
2017-12-29T04:16:02.995Z,71.30
2017-12-29T04:18:36.883Z,70.90
2017-12-29T04:21:10.768Z,70.90
2017-12-29T04:23:45.354Z,71.40
2017-12-29T04:26:20.076Z,71.50
2017-12-29T04:28:53.873Z,71.00
2017-12-29T04:31:28.420Z,71.40
2017-12-29T04:34:03.262Z,71.40
2017-12-29T04:36:37.199Z,71.40
2017-12-29T04:39:12.517Z,71.70
2017-12-29T04:41:47.156Z,71.80
2017-12-29T04:44:21.863Z,72.00
2017-12-29T04:46:55.889Z,72.00
2017-12-29T04:49:30.476Z,71.70
2017-12-29T04:52:05.018Z,72.80
2017-12-29T04:54:38.733Z,72.80
2017-12-29T04:57:13.275Z,73.00
2017-12-29T04:59:48.089Z,73.30
2017-12-29T05:02:22.991Z,73.50
2017-12-29T05:04:57.109Z,73.10
2017-12-29T05:07:31.053Z,73.10
2017-12-29T05:10:05.742Z,73.60
2017-12-29T05:12:40.675Z,73.80
2017-12-29T05:15:15.575Z,73.90
2017-12-29T05:17:49.783Z,73.80
2017-12-29T05:20:24.466Z,74.20
2017-12-29T05:22:58.424Z,73.60
2017-12-29T05:25:33.811Z,74.30
2017-12-29T05:28:08.543Z,74.50
2017-12-29T05:30:42.408Z,74.30
2017-12-29T05:33:16.105Z,73.80
2017-12-29T05:35:49.704Z,73.80
2017-12-29T05:38:24.283Z,74.00
2017-12-29T05:40:58.075Z,73.30
2017-12-29T05:43:32.505Z,73.80
2017-12-29T05:46:07.310Z,73.60
2017-12-29T05:48:41.378Z,73.40
2017-12-29T05:51:15.924Z,74.10
2017-12-29T05:53:50.895Z,74.70
2017-12-29T05:56:24.875Z,73.70
2017-12-29T05:58:58.518Z,73.70
2017-12-29T06:01:32.517Z,73.60
2017-12-29T06:04:07.213Z,74.00
2017-12-29T06:06:41.882Z,73.40
2017-12-29T06:09:17.057Z,72.40
2017-12-29T06:11:51.514Z,72.80
2017-12-29T06:14:26.200Z,72.60
2017-12-29T06:17:01.453Z,71.90
2017-12-29T06:19:36.326Z,71.70
2017-12-29T06:22:10.120Z,71.70
2017-12-29T06:24:44.634Z,71.90
2017-12-29T06:27:18.758Z,71.20
2017-12-29T06:29:53.395Z,71.60
2017-12-29T06:32:27.141Z,71.00
2017-12-29T06:35:01.624Z,71.40
2017-12-29T06:37:35.577Z,70.80
2017-12-29T06:40:10.341Z,71.10
2017-12-29T06:42:44.360Z,70.50
2017-12-29T06:45:18.237Z,71.00
2017-12-29T06:47:51.897Z,71.00
2017-12-29T06:50:26.712Z,71.20
2017-12-29T06:53:01.416Z,71.20
2017-12-29T06:55:36.150Z,71.50
2017-12-29T06:58:10.849Z,71.80
2017-12-29T07:00:44.886Z,71.30
2017-12-29T07:03:19.614Z,71.80
2017-12-29T07:05:54.839Z,72.00
2017-12-29T07:08:29.584Z,71.90
2017-12-29T07:11:04.303Z,72.10
2017-12-29T07:13:39.007Z,72.10
2017-12-29T07:16:13.764Z,72.10
2017-12-29T07:18:48.501Z,72.20
2017-12-29T07:21:23.115Z,72.30
2017-12-29T07:23:57.742Z,72.40
2017-12-29T07:26:31.948Z,71.90
2017-12-29T07:29:05.760Z,71.90
2017-12-29T07:31:40.256Z,72.20
2017-12-29T07:34:15.016Z,72.30
2017-12-29T07:36:49.020Z,71.70
2017-12-29T07:39:22.823Z,71.60
2017-12-29T07:41:56.457Z,71.90
2017-12-29T07:44:30.433Z,71.40
2017-12-29T07:47:05.899Z,71.80
2017-12-29T07:49:39.533Z,71.30
2017-12-29T07:52:13.184Z,72.00
2017-12-29T07:54:46.992Z,71.70
2017-12-29T07:57:21.909Z,71.40
2017-12-29T07:59:56.645Z,71.60
2017-12-29T08:02:31.152Z,71.40
2017-12-29T08:05:05.243Z,70.90
2017-12-29T08:07:39.812Z,70.90
2017-12-29T08:10:13.521Z,70.90
2017-12-29T08:12:48.027Z,70.70
2017-12-29T08:15:22.538Z,71.20
2017-12-29T08:17:57.368Z,71.20
2017-12-29T08:20:31.278Z,70.60
2017-12-29T08:23:05.054Z,70.90
2017-12-29T08:25:38.989Z,70.80
2017-12-29T08:28:14.207Z,70.30
2017-12-29T08:30:48.038Z,70.60
2017-12-29T08:33:22.205Z,70.00
2017-12-29T08:35:56.058Z,70.30
2017-12-29T08:38:29.869Z,70.00
2017-12-29T08:41:04.444Z,70.40
2017-12-29T08:43:39.218Z,70.20
2017-12-29T08:46:13.831Z,70.00
2017-12-29T08:48:48.557Z,69.70
2017-12-29T08:51:23.264Z,69.50
2017-12-29T08:53:58.062Z,69.70
2017-12-29T08:56:32.857Z,69.60
2017-12-29T08:59:06.735Z,69.00
2017-12-29T09:01:41.397Z,69.40
2017-12-29T09:04:15.557Z,69.40
2017-12-29T09:06:49.338Z,68.80
2017-12-29T09:09:24.654Z,68.70
2017-12-29T09:11:59.285Z,69.20
2017-12-29T09:14:34.197Z,68.60
2017-12-29T09:17:09.149Z,68.40
2017-12-29T09:19:43.838Z,67.00
2017-12-29T09:22:18.682Z,66.60
2017-12-29T09:24:53.413Z,66.30
2017-12-29T09:27:28.026Z,66.30
2017-12-29T09:30:02.264Z,65.60
2017-12-29T09:32:37.159Z,66.00
2017-12-29T09:35:11.703Z,65.30
2017-12-29T09:37:45.726Z,64.60
2017-12-29T09:40:20.759Z,65.10
2017-12-29T09:42:55.367Z,65.00
2017-12-29T09:45:30.011Z,64.40
2017-12-29T09:48:04.122Z,63.50
2017-12-29T09:50:37.932Z,62.50
2017-12-29T09:53:11.772Z,62.10
2017-12-29T09:55:45.730Z,60.60
2017-12-29T09:58:20.379Z,60.40
2017-12-29T10:00:55.268Z,59.50
2017-12-29T10:03:29.370Z,57.50
2017-12-29T10:06:04.113Z,57.70
2017-12-29T10:08:38.068Z,56.40
2017-12-29T10:11:11.897Z,56.40
2017-12-29T10:13:46.501Z,57.30
2017-12-29T10:16:21.039Z,53.80
2017-12-29T10:18:54.683Z,53.80
2017-12-29T10:21:28.609Z,51.80
2017-12-29T10:24:02.316Z,51.50
2017-12-29T10:26:36.225Z,51.60
2017-12-29T10:29:10.573Z,51.70
2017-12-29T10:31:44.356Z,52.30
2017-12-29T10:34:18.064Z,51.80
2017-12-29T10:36:52.630Z,49.40
2017-12-29T10:39:26.707Z,48.80
2017-12-29T10:42:01.300Z,48.00
2017-12-29T10:44:35.401Z,48.90
2017-12-29T10:47:10.771Z,50.80
2017-12-29T10:49:44.924Z,50.00
2017-12-29T10:52:18.587Z,48.00
2017-12-29T10:54:52.311Z,46.80
2017-12-29T10:57:26.869Z,46.20
2017-12-29T11:00:01.736Z,44.80
2017-12-29T11:02:35.568Z,43.50
2017-12-29T11:05:10.174Z,43.60
2017-12-29T11:07:44.253Z,43.20
2017-12-29T11:10:18.841Z,42.80
2017-12-29T11:12:54.281Z,41.60
2017-12-29T11:15:28.537Z,40.50
2017-12-29T11:18:02.693Z,39.90
2017-12-29T11:20:37.873Z,39.70
2017-12-29T11:23:12.545Z,39.70
2017-12-29T11:25:47.339Z,40.00
2017-12-29T11:28:21.418Z,37.90
2017-12-29T11:30:55.158Z,38.70
2017-12-29T11:33:29.758Z,37.10
2017-12-29T11:36:04.609Z,37.90
2017-12-29T11:38:39.557Z,37.50
2017-12-29T11:41:13.522Z,36.20
2017-12-29T11:43:47.326Z,36.80
2017-12-29T11:46:22.014Z,37.10
2017-12-29T11:48:55.860Z,36.20
2017-12-29T11:51:29.768Z,37.20
2017-12-29T11:54:03.443Z,38.80
2017-12-29T11:56:37.608Z,40.60
2017-12-29T11:59:12.543Z,41.50
2017-12-29T12:01:47.934Z,43.10
2017-12-29T12:04:22.529Z,43.80
2017-12-29T12:06:56.980Z,43.50
2017-12-29T12:09:30.715Z,43.50
2017-12-29T12:12:05.272Z,44.10
2017-12-29T12:14:40.341Z,42.40
2017-12-29T12:17:14.426Z,41.30
2017-12-29T12:19:48.217Z,41.00
2017-12-29T12:22:22.641Z,40.80
2017-12-29T12:24:57.383Z,41.00
2017-12-29T12:27:31.378Z,40.90
2017-12-29T12:30:05.102Z,41.10
2017-12-29T12:32:38.832Z,42.60
2017-12-29T12:35:12.528Z,43.70
2017-12-29T12:37:47.028Z,45.50
2017-12-29T12:40:21.816Z,45.80
2017-12-29T12:42:56.215Z,45.40
2017-12-29T12:45:30.193Z,46.00
2017-12-29T12:48:04.089Z,46.60
2017-12-29T12:50:38.792Z,47.70
2017-12-29T12:53:13.682Z,47.70
2017-12-29T12:55:48.638Z,48.30
2017-12-29T12:58:22.799Z,48.00
2017-12-29T13:00:57.722Z,48.50
2017-12-29T13:03:32.766Z,47.90
2017-12-29T13:06:07.008Z,47.50
2017-12-29T13:08:40.827Z,47.50
2017-12-29T13:11:14.807Z,47.70
2017-12-29T13:13:48.907Z,46.90
2017-12-29T13:16:23.750Z,47.00
2017-12-29T13:18:58.618Z,47.30
2017-12-29T13:21:33.599Z,46.50
2017-12-29T13:24:07.345Z,46.00
2017-12-29T13:26:41.905Z,48.00
2017-12-29T13:29:16.732Z,47.40
2017-12-29T13:31:50.908Z,47.30
2017-12-29T13:34:25.447Z,48.70
2017-12-29T13:36:59.320Z,48.30
2017-12-29T13:39:33.782Z,49.70
2017-12-29T13:42:08.761Z,49.20
2017-12-29T13:44:42.817Z,48.90
2017-12-29T13:47:16.574Z,49.10
2017-12-29T13:49:50.392Z,49.50
2017-12-29T13:52:24.204Z,49.90
2017-12-29T13:54:57.908Z,50.50
2017-12-29T13:57:32.515Z,51.20
2017-12-29T14:00:07.337Z,51.60
2017-12-29T14:02:41.207Z,51.40
2017-12-29T14:05:15.637Z,51.70
2017-12-29T14:07:50.583Z,52.30
2017-12-29T14:10:25.373Z,52.80
2017-12-29T14:13:00.048Z,53.20
2017-12-29T14:15:35.366Z,52.70
2017-12-29T14:18:10.517Z,53.30
2017-12-29T14:20:45.345Z,53.50
2017-12-29T14:23:19.381Z,53.50
2017-12-29T14:25:53.031Z,53.30
2017-12-29T14:28:26.869Z,52.60
2017-12-29T14:31:00.929Z,52.80
2017-12-29T14:33:35.205Z,53.10
2017-12-29T14:36:08.904Z,52.90
2017-12-29T14:38:42.611Z,52.30
2017-12-29T14:41:16.242Z,52.60
2017-12-29T14:43:50.132Z,52.30
2017-12-29T14:46:24.965Z,52.20
2017-12-29T14:48:59.428Z,52.40
2017-12-29T14:54:09.756Z,52.80
2017-12-29T14:56:43.516Z,52.80
2017-12-29T15:01:52.902Z,52.80
2017-12-29T15:04:28.221Z,53.70
2017-12-29T15:07:02.840Z,53.60
2017-12-29T15:09:37.603Z,53.40
2017-12-29T15:12:11.736Z,53.70
2017-12-29T15:14:46.195Z,53.90
2017-12-29T15:17:20.562Z,53.80
2017-12-29T15:19:54.919Z,54.40
2017-12-29T15:22:29.528Z,55.00
2017-12-29T15:25:03.266Z,54.40
2017-12-29T15:27:37.842Z,54.80
2017-12-29T15:30:12.433Z,55.30
2017-12-29T15:32:46.354Z,54.80
2017-12-29T15:35:21.636Z,55.50
2017-12-29T15:37:56.638Z,56.10
2017-12-29T15:40:30.508Z,55.10
2017-12-29T15:43:05.139Z,55.70
2017-12-29T15:45:39.711Z,55.90
2017-12-29T15:48:14.373Z,56.00
2017-12-29T15:50:49.155Z,56.10
2017-12-29T15:53:23.029Z,55.70
2017-12-29T15:55:56.858Z,56.20
2017-12-29T15:58:32.291Z,56.60
2017-12-29T16:01:07.734Z,56.10
2017-12-29T16:03:42.794Z,56.40
2017-12-29T16:06:17.598Z,56.80
2017-12-29T16:08:51.700Z,56.40
2017-12-29T16:11:25.503Z,56.40
2017-12-29T16:14:00.436Z,57.50
2017-12-29T16:16:34.620Z,56.70
2017-12-29T16:19:08.366Z,56.70
2017-12-29T16:21:42.060Z,56.70
2017-12-29T16:24:16.092Z,56.80
2017-12-29T16:26:50.078Z,56.80
2017-12-29T16:29:23.833Z,56.90
2017-12-29T16:31:59.436Z,57.20
2017-12-29T16:34:34.066Z,57.20
2017-12-29T16:37:08.693Z,57.40
2017-12-29T16:39:42.700Z,56.80
2017-12-29T16:42:16.386Z,57.00
2017-12-29T16:44:50.135Z,57.20
2017-12-29T16:47:23.761Z,57.60
2017-12-29T16:49:58.748Z,58.00
2017-12-29T16:52:33.474Z,58.10
2017-12-29T16:55:07.398Z,57.70
2017-12-29T16:57:41.502Z,58.00
2017-12-29T17:00:16.744Z,58.10
2017-12-29T17:02:51.544Z,58.10
2017-12-29T17:05:25.437Z,55.20
2017-12-29T17:07:59.214Z,58.30
2017-12-29T17:10:33.767Z,58.80
2017-12-29T17:13:07.824Z,58.30
2017-12-29T17:15:42.248Z,58.90
2017-12-29T17:18:16.174Z,58.20
2017-12-29T17:20:51.381Z,58.30
2017-12-29T17:23:26.110Z,58.70
2017-12-29T17:26:00.906Z,58.80
2017-12-29T17:28:35.530Z,59.10
2017-12-29T17:31:10.337Z,59.00
2017-12-29T17:33:44.892Z,59.10
2017-12-29T17:36:18.773Z,59.10
2017-12-29T17:38:52.615Z,58.80
2017-12-29T17:41:26.590Z,58.80
2017-12-29T17:44:00.553Z,58.50
2017-12-29T17:46:35.413Z,58.60
2017-12-29T17:49:09.210Z,58.30
2017-12-29T17:51:42.973Z,58.40
2017-12-29T17:54:17.540Z,59.10
2017-12-29T17:56:51.642Z,58.00
2017-12-29T17:59:25.321Z,58.00
2017-12-29T18:01:59.468Z,58.70
2017-12-29T18:04:33.120Z,58.60
2017-12-29T18:07:07.723Z,59.50
2017-12-29T18:09:41.801Z,59.00
2017-12-29T18:12:15.639Z,59.90
2017-12-29T18:14:49.311Z,61.00
2017-12-29T18:17:23.928Z,66.50
2017-12-29T18:19:58.493Z,72.70
2017-12-29T18:22:35.600Z,71.90
2017-12-29T18:25:10.190Z,74.50
2017-12-29T18:27:45.257Z,76.70
2017-12-29T18:30:19.412Z,76.60
2017-12-29T18:32:53.200Z,76.80
2017-12-29T18:35:27.209Z,76.70
2017-12-29T18:38:01.764Z,77.10
2017-12-29T18:40:35.387Z,75.90
2017-12-29T18:43:09.074Z,76.80
2017-12-29T18:45:43.788Z,77.50
2017-12-29T18:48:21.177Z,77.50
2017-12-29T18:50:55.298Z,77.70
2017-12-29T18:53:29.760Z,79.10
2017-12-29T18:56:03.881Z,79.20
2017-12-29T18:58:37.730Z,80.30
2017-12-29T19:01:12.224Z,80.40
2017-12-29T19:03:45.906Z,79.80
2017-12-29T19:06:19.661Z,79.90
2017-12-29T19:08:53.579Z,80.60
2017-12-29T19:11:27.153Z,79.50
2017-12-29T19:14:01.869Z,79.80
2017-12-29T19:16:35.654Z,79.80
2017-12-29T19:19:09.514Z,79.00
2017-12-29T19:21:43.244Z,78.70
2017-12-29T19:24:17.818Z,77.70
2017-12-29T19:26:51.787Z,77.60
2017-12-29T19:29:25.510Z,78.30
2017-12-29T19:31:59.992Z,77.30
2017-12-29T19:34:34.772Z,76.70
2017-12-29T19:37:08.894Z,76.60
2017-12-29T19:39:42.764Z,76.10
2017-12-29T19:42:17.461Z,76.00
2017-12-29T19:44:52.234Z,76.10
2017-12-29T19:47:26.275Z,76.00
2017-12-29T19:50:00.634Z,76.30
2017-12-29T19:52:35.460Z,75.90
2017-12-29T19:55:09.405Z,75.20
2017-12-29T19:57:43.814Z,75.40
2017-12-29T20:00:17.715Z,74.50
2017-12-29T20:02:52.357Z,75.10
2017-12-29T20:05:26.294Z,74.50
2017-12-29T20:08:01.711Z,74.40
2017-12-29T20:10:36.605Z,74.80
2017-12-29T20:13:11.161Z,73.80
2017-12-29T20:15:46.321Z,74.40
2017-12-29T20:18:21.045Z,74.40
2017-12-29T20:20:55.597Z,74.60
2017-12-29T20:23:30.223Z,74.10
2017-12-29T20:26:05.118Z,74.90
2017-12-29T20:28:39.202Z,74.30
2017-12-29T20:31:14.564Z,75.00
2017-12-29T20:33:49.154Z,75.00
2017-12-29T20:36:24.012Z,75.00
2017-12-29T20:38:57.665Z,76.10
2017-12-29T20:41:31.326Z,75.80
2017-12-29T20:44:05.807Z,76.50
2017-12-29T20:46:40.788Z,77.00
2017-12-29T20:49:15.690Z,77.50
2017-12-29T20:51:50.026Z,78.40
2017-12-29T20:54:23.842Z,79.80
2017-12-29T20:56:58.730Z,80.70
2017-12-29T20:59:33.374Z,82.10
2017-12-29T21:02:07.296Z,81.00
2017-12-29T21:04:41.816Z,81.70
2017-12-29T21:07:16.515Z,81.80
2017-12-29T21:09:51.140Z,83.30
2017-12-29T21:12:24.793Z,82.20
2017-12-29T21:14:59.498Z,82.70
2017-12-29T21:17:33.619Z,82.30
2017-12-29T21:20:08.130Z,82.30
2017-12-29T21:22:42.650Z,83.40
2017-12-29T21:25:16.602Z,82.50
2017-12-29T21:27:50.416Z,83.10
2017-12-29T21:30:24.977Z,83.20
2017-12-29T21:32:58.740Z,83.50
2017-12-29T21:35:32.383Z,83.90
2017-12-29T21:38:06.942Z,83.40
2017-12-29T21:40:41.082Z,82.80
2017-12-29T21:43:15.402Z,83.70
2017-12-29T21:45:50.367Z,83.00
2017-12-29T21:48:24.279Z,82.90
2017-12-29T21:50:58.888Z,83.10
2017-12-29T21:53:32.883Z,82.30
2017-12-29T21:56:06.664Z,82.60
2017-12-29T21:58:41.316Z,82.80
2017-12-29T22:01:16.288Z,82.20
2017-12-29T22:03:50.151Z,81.60
2017-12-29T22:06:24.720Z,81.60
2017-12-29T22:08:59.643Z,81.70
2017-12-29T22:11:34.276Z,81.60
2017-12-29T22:14:08.490Z,81.10
2017-12-29T22:16:43.123Z,81.40
2017-12-29T22:19:18.060Z,80.60
2017-12-29T22:21:52.939Z,80.60
2017-12-29T22:24:27.048Z,80.20
2017-12-29T22:27:00.922Z,80.00
2017-12-29T22:29:34.775Z,80.20
2017-12-29T22:32:08.474Z,80.20
2017-12-29T22:34:42.243Z,80.00
2017-12-29T22:37:15.894Z,80.50
2017-12-29T22:39:50.416Z,80.40
2017-12-29T22:42:25.174Z,80.20
2017-12-29T22:44:59.278Z,79.20
2017-12-29T22:47:33.034Z,79.60
2017-12-29T22:50:07.433Z,79.20
2017-12-29T22:52:42.648Z,78.60
2017-12-29T22:55:16.508Z,78.20
2017-12-29T22:57:50.347Z,78.80
2017-12-29T23:00:23.943Z,79.10
2017-12-29T23:02:58.447Z,79.50
2017-12-29T23:05:33.257Z,78.60
2017-12-29T23:08:08.125Z,78.50
2017-12-29T23:10:42.005Z,78.00
2017-12-29T23:13:16.446Z,78.20
2017-12-29T23:15:51.052Z,78.30
2017-12-29T23:18:25.797Z,78.50
2017-12-29T23:20:59.778Z,77.80
2017-12-29T23:23:33.608Z,78.20
2017-12-29T23:26:07.310Z,77.60
2017-12-29T23:28:41.156Z,78.40
2017-12-29T23:31:14.759Z,77.80
2017-12-29T23:33:49.352Z,78.60
2017-12-29T23:36:24.165Z,78.70
2017-12-29T23:38:58.877Z,78.20
2017-12-29T23:41:32.904Z,78.10
2017-12-29T23:44:08.151Z,77.90
2017-12-29T23:46:42.318Z,77.70
2017-12-29T23:49:16.093Z,78.10
2017-12-29T23:51:49.766Z,78.20
2017-12-29T23:54:23.349Z,78.10
2017-12-29T23:56:57.197Z,78.00
2017-12-29T23:59:30.911Z,78.10
